sensor_id;sensor_type;location;lat;lon;timestamp;temperature;humidity
23311;DHT22;11828;51.508;18.118;2023-04-28T00:02:07;23.00;28.20
23311;DHT22;11828;51.508;18.118;2023-04-28T00:04:34;22.80;28.20
23311;DHT22;11828;51.508;18.118;2023-04-28T00:07:00;22.80;28.30
23311;DHT22;11828;51.508;18.118;2023-04-28T00:09:26;22.90;28.40
23311;DHT22;11828;51.508;18.118;2023-04-28T00:11:52;22.90;28.50
23311;DHT22;11828;51.508;18.118;2023-04-28T00:14:18;22.90;28.30
23311;DHT22;11828;51.508;18.118;2023-04-28T00:16:44;23.00;28.40
23311;DHT22;11828;51.508;18.118;2023-04-28T00:19:11;23.00;28.30
23311;DHT22;11828;51.508;18.118;2023-04-28T00:21:37;22.90;28.20
23311;DHT22;11828;51.508;18.118;2023-04-28T00:24:03;22.80;28.30
23311;DHT22;11828;51.508;18.118;2023-04-28T00:26:30;22.90;28.40
23311;DHT22;11828;51.508;18.118;2023-04-28T00:28:56;22.90;28.30
23311;DHT22;11828;51.508;18.118;2023-04-28T00:31:22;22.90;28.30
23311;DHT22;11828;51.508;18.118;2023-04-28T00:33:48;23.00;28.30
23311;DHT22;11828;51.508;18.118;2023-04-28T00:36:14;23.00;28.20
23311;DHT22;11828;51.508;18.118;2023-04-28T00:38:40;23.10;28.20
23311;DHT22;11828;51.508;18.118;2023-04-28T00:41:09;23.00;28.00
23311;DHT22;11828;51.508;18.118;2023-04-28T00:43:46;23.00;28.10
23311;DHT22;11828;51.508;18.118;2023-04-28T00:46:21;23.10;28.30
23311;DHT22;11828;51.508;18.118;2023-04-28T00:48:50;22.80;28.20
23311;DHT22;11828;51.508;18.118;2023-04-28T00:51:16;22.70;28.30
23311;DHT22;11828;51.508;18.118;2023-04-28T00:53:43;22.70;28.50
23311;DHT22;11828;51.508;18.118;2023-04-28T00:56:09;22.60;28.50
23311;DHT22;11828;51.508;18.118;2023-04-28T00:58:36;22.60;28.50
23311;DHT22;11828;51.508;18.118;2023-04-28T01:01:07;22.50;28.50
23311;DHT22;11828;51.508;18.118;2023-04-28T01:03:35;22.50;28.60
23311;DHT22;11828;51.508;18.118;2023-04-28T01:06:07;22.60;28.70
23311;DHT22;11828;51.508;18.118;2023-04-28T01:08:35;22.60;28.60
23311;DHT22;11828;51.508;18.118;2023-04-28T01:11:03;22.60;28.50
23311;DHT22;11828;51.508;18.118;2023-04-28T01:13:30;22.60;28.50
23311;DHT22;11828;51.508;18.118;2023-04-28T01:15:56;22.60;28.40
23311;DHT22;11828;51.508;18.118;2023-04-28T01:18:22;22.50;28.40
23311;DHT22;11828;51.508;18.118;2023-04-28T01:20:48;22.60;28.50
23311;DHT22;11828;51.508;18.118;2023-04-28T01:23:15;22.60;28.50
23311;DHT22;11828;51.508;18.118;2023-04-28T01:25:43;22.60;28.40
23311;DHT22;11828;51.508;18.118;2023-04-28T01:28:10;22.60;28.40
23311;DHT22;11828;51.508;18.118;2023-04-28T01:30:36;22.70;28.40
23311;DHT22;11828;51.508;18.118;2023-04-28T01:33:02;22.70;28.30
23311;DHT22;11828;51.508;18.118;2023-04-28T01:35:28;22.70;28.40
23311;DHT22;11828;51.508;18.118;2023-04-28T01:37:55;22.70;28.40
23311;DHT22;11828;51.508;18.118;2023-04-28T01:40:21;22.70;28.30
23311;DHT22;11828;51.508;18.118;2023-04-28T01:42:47;22.70;28.30
23311;DHT22;11828;51.508;18.118;2023-04-28T01:45:13;22.70;28.20
23311;DHT22;11828;51.508;18.118;2023-04-28T01:47:40;22.70;28.20
23311;DHT22;11828;51.508;18.118;2023-04-28T01:50:06;22.80;28.20
23311;DHT22;11828;51.508;18.118;2023-04-28T01:52:32;22.70;28.20
23311;DHT22;11828;51.508;18.118;2023-04-28T01:54:58;22.70;28.00
23311;DHT22;11828;51.508;18.118;2023-04-28T01:57:25;22.70;28.10
23311;DHT22;11828;51.508;18.118;2023-04-28T01:59:53;22.80;28.10
23311;DHT22;11828;51.508;18.118;2023-04-28T02:02:19;22.70;28.10
23311;DHT22;11828;51.508;18.118;2023-04-28T02:04:45;22.80;28.00
23311;DHT22;11828;51.508;18.118;2023-04-28T02:07:12;22.80;28.00
23311;DHT22;11828;51.508;18.118;2023-04-28T02:09:38;22.70;27.90
23311;DHT22;11828;51.508;18.118;2023-04-28T02:12:04;22.70;28.40
23311;DHT22;11828;51.508;18.118;2023-04-28T02:14:31;22.70;27.80
23311;DHT22;11828;51.508;18.118;2023-04-28T02:17:00;22.70;27.80
23311;DHT22;11828;51.508;18.118;2023-04-28T02:19:27;22.70;27.90
23311;DHT22;11828;51.508;18.118;2023-04-28T02:21:54;22.70;28.00
23311;DHT22;11828;51.508;18.118;2023-04-28T02:24:20;22.70;28.00
23311;DHT22;11828;51.508;18.118;2023-04-28T02:26:46;22.70;28.00
23311;DHT22;11828;51.508;18.118;2023-04-28T02:29:12;22.70;27.90
23311;DHT22;11828;51.508;18.118;2023-04-28T02:31:39;22.70;27.90
23311;DHT22;11828;51.508;18.118;2023-04-28T02:34:05;22.80;27.90
23311;DHT22;11828;51.508;18.118;2023-04-28T02:36:31;22.80;27.80
23311;DHT22;11828;51.508;18.118;2023-04-28T02:38:58;22.80;27.80
23311;DHT22;11828;51.508;18.118;2023-04-28T02:41:24;22.80;27.80
23311;DHT22;11828;51.508;18.118;2023-04-28T02:43:50;22.80;27.70
23311;DHT22;11828;51.508;18.118;2023-04-28T02:46:17;22.80;27.70
23311;DHT22;11828;51.508;18.118;2023-04-28T02:48:43;22.80;27.70
23311;DHT22;11828;51.508;18.118;2023-04-28T02:51:09;22.80;27.70
23311;DHT22;11828;51.508;18.118;2023-04-28T02:53:35;22.80;28.20
23311;DHT22;11828;51.508;18.118;2023-04-28T02:56:02;22.80;27.70
23311;DHT22;11828;51.508;18.118;2023-04-28T02:58:29;22.80;27.50
23311;DHT22;11828;51.508;18.118;2023-04-28T03:00:55;22.70;28.00
23311;DHT22;11828;51.508;18.118;2023-04-28T03:03:21;22.70;27.60
23311;DHT22;11828;51.508;18.118;2023-04-28T03:05:48;22.70;27.70
23311;DHT22;11828;51.508;18.118;2023-04-28T03:08:13;22.80;27.80
23311;DHT22;11828;51.508;18.118;2023-04-28T03:10:40;22.80;27.70
23311;DHT22;11828;51.508;18.118;2023-04-28T03:13:06;22.80;27.70
23311;DHT22;11828;51.508;18.118;2023-04-28T03:15:32;22.80;28.20
23311;DHT22;11828;51.508;18.118;2023-04-28T03:17:58;22.80;27.70
23311;DHT22;11828;51.508;18.118;2023-04-28T03:20:25;22.70;27.70
23311;DHT22;11828;51.508;18.118;2023-04-28T03:22:52;22.70;27.80
23311;DHT22;11828;51.508;18.118;2023-04-28T03:25:18;22.60;27.70
23311;DHT22;11828;51.508;18.118;2023-04-28T03:27:44;22.60;27.80
23311;DHT22;11828;51.508;18.118;2023-04-28T03:30:10;22.50;27.80
23311;DHT22;11828;51.508;18.118;2023-04-28T03:32:37;22.50;27.90
23311;DHT22;11828;51.508;18.118;2023-04-28T03:35:03;22.50;27.80
23311;DHT22;11828;51.508;18.118;2023-04-28T03:37:30;22.60;27.80
23311;DHT22;11828;51.508;18.118;2023-04-28T03:39:56;22.50;27.80
23311;DHT22;11828;51.508;18.118;2023-04-28T03:42:22;22.50;28.10
23311;DHT22;11828;51.508;18.118;2023-04-28T03:44:48;22.50;27.80
23311;DHT22;11828;51.508;18.118;2023-04-28T03:47:14;22.50;27.90
23311;DHT22;11828;51.508;18.118;2023-04-28T03:49:41;22.50;27.90
23311;DHT22;11828;51.508;18.118;2023-04-28T03:52:07;22.50;28.00
23311;DHT22;11828;51.508;18.118;2023-04-28T03:54:33;22.60;28.00
23311;DHT22;11828;51.508;18.118;2023-04-28T03:56:59;22.60;28.00
23311;DHT22;11828;51.508;18.118;2023-04-28T03:59:27;22.70;28.00
23311;DHT22;11828;51.508;18.118;2023-04-28T04:01:52;22.80;27.90
23311;DHT22;11828;51.508;18.118;2023-04-28T04:04:19;22.80;27.80
23311;DHT22;11828;51.508;18.118;2023-04-28T04:06:45;22.90;27.80
23311;DHT22;11828;51.508;18.118;2023-04-28T04:09:11;23.00;27.90
23311;DHT22;11828;51.508;18.118;2023-04-28T04:11:37;23.00;27.90
23311;DHT22;11828;51.508;18.118;2023-04-28T04:14:04;23.10;27.80
23311;DHT22;11828;51.508;18.118;2023-04-28T04:16:30;23.20;27.80
23311;DHT22;11828;51.508;18.118;2023-04-28T04:18:57;23.20;27.70
23311;DHT22;11828;51.508;18.118;2023-04-28T04:21:23;23.20;27.60
23311;DHT22;11828;51.508;18.118;2023-04-28T04:23:49;23.20;27.60
23311;DHT22;11828;51.508;18.118;2023-04-28T04:26:15;23.20;27.80
23311;DHT22;11828;51.508;18.118;2023-04-28T04:28:42;23.20;27.80
23311;DHT22;11828;51.508;18.118;2023-04-28T04:31:07;23.20;27.80
23311;DHT22;11828;51.508;18.118;2023-04-28T04:33:34;23.30;27.80
23311;DHT22;11828;51.508;18.118;2023-04-28T04:36:02;23.30;27.70
23311;DHT22;11828;51.508;18.118;2023-04-28T04:38:29;23.40;27.70
23311;DHT22;11828;51.508;18.118;2023-04-28T04:40:56;23.50;27.80
23311;DHT22;11828;51.508;18.118;2023-04-28T04:43:22;23.60;27.80
23311;DHT22;11828;51.508;18.118;2023-04-28T04:45:48;23.70;27.60
23311;DHT22;11828;51.508;18.118;2023-04-28T04:48:14;23.80;27.50
23311;DHT22;11828;51.508;18.118;2023-04-28T04:50:40;23.80;27.40
23311;DHT22;11828;51.508;18.118;2023-04-28T04:53:07;23.70;27.90
23311;DHT22;11828;51.508;18.118;2023-04-28T04:55:33;23.70;27.40
23311;DHT22;11828;51.508;18.118;2023-04-28T04:58:00;23.70;27.30
23311;DHT22;11828;51.508;18.118;2023-04-28T05:00:26;23.60;27.20
23311;DHT22;11828;51.508;18.118;2023-04-28T05:02:53;23.60;27.30
23311;DHT22;11828;51.508;18.118;2023-04-28T05:05:19;23.50;27.30
23311;DHT22;11828;51.508;18.118;2023-04-28T05:07:46;23.50;27.40
23311;DHT22;11828;51.508;18.118;2023-04-28T05:10:12;23.40;27.50
23311;DHT22;11828;51.508;18.118;2023-04-28T05:12:38;23.50;27.50
23311;DHT22;11828;51.508;18.118;2023-04-28T05:15:05;23.60;27.60
23311;DHT22;11828;51.508;18.118;2023-04-28T05:17:33;23.50;27.60
23311;DHT22;11828;51.508;18.118;2023-04-28T05:19:59;23.60;27.90
23311;DHT22;11828;51.508;18.118;2023-04-28T05:22:25;23.60;27.90
23311;DHT22;11828;51.508;18.118;2023-04-28T05:24:51;23.70;27.80
23311;DHT22;11828;51.508;18.118;2023-04-28T05:27:18;23.90;27.80
23311;DHT22;11828;51.508;18.118;2023-04-28T05:29:44;24.00;27.80
23311;DHT22;11828;51.508;18.118;2023-04-28T05:32:12;24.20;27.70
23311;DHT22;11828;51.508;18.118;2023-04-28T05:34:38;24.20;27.50
23311;DHT22;11828;51.508;18.118;2023-04-28T05:37:04;24.50;27.60
23311;DHT22;11828;51.508;18.118;2023-04-28T05:39:30;24.60;27.40
23311;DHT22;11828;51.508;18.118;2023-04-28T05:41:57;24.80;27.10
23311;DHT22;11828;51.508;18.118;2023-04-28T05:44:25;25.00;27.00
23311;DHT22;11828;51.508;18.118;2023-04-28T05:46:51;25.20;26.80
23311;DHT22;11828;51.508;18.118;2023-04-28T05:49:18;25.40;26.60
23311;DHT22;11828;51.508;18.118;2023-04-28T05:51:44;25.60;26.40
23311;DHT22;11828;51.508;18.118;2023-04-28T05:54:10;25.80;26.00
23311;DHT22;11828;51.508;18.118;2023-04-28T05:56:36;26.00;25.80
23311;DHT22;11828;51.508;18.118;2023-04-28T05:59:02;26.30;25.70
23311;DHT22;11828;51.508;18.118;2023-04-28T06:01:30;26.50;25.40
23311;DHT22;11828;51.508;18.118;2023-04-28T06:03:56;26.60;25.20
23311;DHT22;11828;51.508;18.118;2023-04-28T06:06:24;26.90;24.80
23311;DHT22;11828;51.508;18.118;2023-04-28T06:08:50;27.10;24.80
23311;DHT22;11828;51.508;18.118;2023-04-28T06:11:17;27.10;24.70
23311;DHT22;11828;51.508;18.118;2023-04-28T06:13:48;27.10;24.40
23311;DHT22;11828;51.508;18.118;2023-04-28T06:16:15;27.20;24.40
23311;DHT22;11828;51.508;18.118;2023-04-28T06:18:42;27.20;24.40
23311;DHT22;11828;51.508;18.118;2023-04-28T06:21:09;27.20;24.40
23311;DHT22;11828;51.508;18.118;2023-04-28T06:23:35;27.30;24.30
23311;DHT22;11828;51.508;18.118;2023-04-28T06:26:03;27.20;24.20
23311;DHT22;11828;51.508;18.118;2023-04-28T06:28:29;27.10;24.30
23311;DHT22;11828;51.508;18.118;2023-04-28T06:30:55;27.20;24.40
23311;DHT22;11828;51.508;18.118;2023-04-28T06:33:21;27.30;24.60
23311;DHT22;11828;51.508;18.118;2023-04-28T06:35:48;27.60;24.30
23311;DHT22;11828;51.508;18.118;2023-04-28T06:38:14;28.10;24.00
23311;DHT22;11828;51.508;18.118;2023-04-28T06:40:40;28.70;23.80
23311;DHT22;11828;51.508;18.118;2023-04-28T06:43:06;29.30;23.40
23311;DHT22;11828;51.508;18.118;2023-04-28T06:45:32;29.80;22.80
23311;DHT22;11828;51.508;18.118;2023-04-28T06:47:58;30.00;22.60
23311;DHT22;11828;51.508;18.118;2023-04-28T06:50:25;30.60;22.50
23311;DHT22;11828;51.508;18.118;2023-04-28T06:52:51;31.00;21.80
23311;DHT22;11828;51.508;18.118;2023-04-28T06:55:18;31.60;21.60
23311;DHT22;11828;51.508;18.118;2023-04-28T06:57:44;32.00;21.20
23311;DHT22;11828;51.508;18.118;2023-04-28T07:00:11;32.50;20.80
23311;DHT22;11828;51.508;18.118;2023-04-28T07:02:37;33.00;20.40
23311;DHT22;11828;51.508;18.118;2023-04-28T07:05:04;33.50;20.50
23311;DHT22;11828;51.508;18.118;2023-04-28T07:07:31;33.90;20.00
23311;DHT22;11828;51.508;18.118;2023-04-28T07:09:57;34.20;19.50
23311;DHT22;11828;51.508;18.118;2023-04-28T07:12:24;34.60;19.30
23311;DHT22;11828;51.508;18.118;2023-04-28T07:14:52;34.80;18.70
23311;DHT22;11828;51.508;18.118;2023-04-28T07:17:18;35.20;18.70
23311;DHT22;11828;51.508;18.118;2023-04-28T07:19:44;35.50;18.00
23311;DHT22;11828;51.508;18.118;2023-04-28T07:22:10;35.60;17.60
23311;DHT22;11828;51.508;18.118;2023-04-28T07:24:37;35.80;17.60
23311;DHT22;11828;51.508;18.118;2023-04-28T07:27:03;36.00;17.80
23311;DHT22;11828;51.508;18.118;2023-04-28T07:29:30;36.20;17.30
23311;DHT22;11828;51.508;18.118;2023-04-28T07:32:01;36.20;16.90
23311;DHT22;11828;51.508;18.118;2023-04-28T07:34:34;36.00;16.70
23311;DHT22;11828;51.508;18.118;2023-04-28T07:37:01;36.20;16.90
23311;DHT22;11828;51.508;18.118;2023-04-28T07:39:30;36.50;16.90
23311;DHT22;11828;51.508;18.118;2023-04-28T07:41:56;36.70;16.50
23311;DHT22;11828;51.508;18.118;2023-04-28T07:44:24;36.80;16.40
23311;DHT22;11828;51.508;18.118;2023-04-28T07:46:50;37.00;16.20
23311;DHT22;11828;51.508;18.118;2023-04-28T07:49:16;37.10;16.20
23311;DHT22;11828;51.508;18.118;2023-04-28T07:51:42;37.50;16.20
23311;DHT22;11828;51.508;18.118;2023-04-28T07:54:09;37.70;15.70
23311;DHT22;11828;51.508;18.118;2023-04-28T07:56:35;37.30;15.20
23311;DHT22;11828;51.508;18.118;2023-04-28T07:59:01;36.90;15.30
23311;DHT22;11828;51.508;18.118;2023-04-28T08:01:28;36.60;15.40
23311;DHT22;11828;51.508;18.118;2023-04-28T08:03:54;36.60;15.90
23311;DHT22;11828;51.508;18.118;2023-04-28T08:06:20;36.70;15.60
23311;DHT22;11828;51.508;18.118;2023-04-28T08:08:47;36.50;15.20
23311;DHT22;11828;51.508;18.118;2023-04-28T08:11:13;36.40;15.50
23311;DHT22;11828;51.508;18.118;2023-04-28T08:13:40;36.50;15.50
23311;DHT22;11828;51.508;18.118;2023-04-28T08:16:06;36.60;15.60
23311;DHT22;11828;51.508;18.118;2023-04-28T08:18:33;36.40;15.50
23311;DHT22;11828;51.508;18.118;2023-04-28T08:20:59;36.60;15.70
23311;DHT22;11828;51.508;18.118;2023-04-28T08:23:25;37.00;15.60
23311;DHT22;11828;51.508;18.118;2023-04-28T08:25:56;37.00;15.00
23311;DHT22;11828;51.508;18.118;2023-04-28T08:28:23;37.00;15.00
23311;DHT22;11828;51.508;18.118;2023-04-28T08:30:49;37.10;15.20
23311;DHT22;11828;51.508;18.118;2023-04-28T08:33:15;37.10;14.90
23311;DHT22;11828;51.508;18.118;2023-04-28T08:35:42;36.80;15.30
23311;DHT22;11828;51.508;18.118;2023-04-28T08:38:08;36.70;15.60
23311;DHT22;11828;51.508;18.118;2023-04-28T08:40:39;37.00;15.30
23311;DHT22;11828;51.508;18.118;2023-04-28T08:43:07;37.30;15.50
23311;DHT22;11828;51.508;18.118;2023-04-28T08:45:41;38.10;15.60
23311;DHT22;11828;51.508;18.118;2023-04-28T08:48:19;38.80;15.00
23311;DHT22;11828;51.508;18.118;2023-04-28T08:50:51;39.00;14.40
23311;DHT22;11828;51.508;18.118;2023-04-28T08:53:23;39.00;14.60
23311;DHT22;11828;51.508;18.118;2023-04-28T08:55:57;39.10;14.50
23311;DHT22;11828;51.508;18.118;2023-04-28T08:58:24;38.90;14.30
23311;DHT22;11828;51.508;18.118;2023-04-28T09:00:52;38.70;14.20
23311;DHT22;11828;51.508;18.118;2023-04-28T09:03:18;38.70;14.50
23311;DHT22;11828;51.508;18.118;2023-04-28T09:05:45;38.80;14.40
23311;DHT22;11828;51.508;18.118;2023-04-28T09:08:11;39.10;14.10
23311;DHT22;11828;51.508;18.118;2023-04-28T09:10:37;39.00;13.80
23311;DHT22;11828;51.508;18.118;2023-04-28T09:13:04;38.90;14.10
23311;DHT22;11828;51.508;18.118;2023-04-28T09:15:35;39.10;14.20
23311;DHT22;11828;51.508;18.118;2023-04-28T09:18:04;38.90;13.90
23311;DHT22;11828;51.508;18.118;2023-04-28T09:20:32;39.30;14.30
23311;DHT22;11828;51.508;18.118;2023-04-28T09:23:19;39.30;13.80
23311;DHT22;11828;51.508;18.118;2023-04-28T09:28:26;39.10;13.70
23311;DHT22;11828;51.508;18.118;2023-04-28T09:30:53;39.50;14.00
23311;DHT22;11828;51.508;18.118;2023-04-28T09:33:19;40.00;13.70
23311;DHT22;11828;51.508;18.118;2023-04-28T09:35:46;40.10;13.60
23311;DHT22;11828;51.508;18.118;2023-04-28T09:38:14;40.60;13.80
23311;DHT22;11828;51.508;18.118;2023-04-28T09:40:57;40.90;13.70
23311;DHT22;11828;51.508;18.118;2023-04-28T09:43:28;41.50;13.50
23311;DHT22;11828;51.508;18.118;2023-04-28T09:46:01;41.80;13.10
23311;DHT22;11828;51.508;18.118;2023-04-28T09:48:33;42.00;12.80
23311;DHT22;11828;51.508;18.118;2023-04-28T09:51:06;41.90;12.50
23311;DHT22;11828;51.508;18.118;2023-04-28T09:53:33;41.60;12.60
23311;DHT22;11828;51.508;18.118;2023-04-28T09:56:02;41.30;12.60
23311;DHT22;11828;51.508;18.118;2023-04-28T09:58:33;41.00;12.90
23311;DHT22;11828;51.508;18.118;2023-04-28T10:01:00;40.90;12.70
23311;DHT22;11828;51.508;18.118;2023-04-28T10:03:28;40.90;12.80
23311;DHT22;11828;51.508;18.118;2023-04-28T10:05:56;40.70;12.70
23311;DHT22;11828;51.508;18.118;2023-04-28T10:08:24;40.50;13.10
23311;DHT22;11828;51.508;18.118;2023-04-28T10:10:52;40.20;13.10
23311;DHT22;11828;51.508;18.118;2023-04-28T10:13:21;40.00;13.20
23311;DHT22;11828;51.508;18.118;2023-04-28T10:15:48;39.80;13.40
23311;DHT22;11828;51.508;18.118;2023-04-28T10:18:16;40.20;13.50
23311;DHT22;11828;51.508;18.118;2023-04-28T10:21:08;40.60;13.30
23311;DHT22;11828;51.508;18.118;2023-04-28T10:24:04;41.10;13.30
23311;DHT22;11828;51.508;18.118;2023-04-28T10:27:03;41.50;12.70
23311;DHT22;11828;51.508;18.118;2023-04-28T10:29:32;41.50;12.50
23311;DHT22;11828;51.508;18.118;2023-04-28T10:32:28;41.40;12.70
23311;DHT22;11828;51.508;18.118;2023-04-28T10:35:39;41.00;12.40
23311;DHT22;11828;51.508;18.118;2023-04-28T10:38:19;40.70;12.70
23311;DHT22;11828;51.508;18.118;2023-04-28T10:40:52;40.20;12.90
23311;DHT22;11828;51.508;18.118;2023-04-28T10:58:42;36.10;14.60
23311;DHT22;11828;51.508;18.118;2023-04-28T11:01:29;35.90;14.70
23311;DHT22;11828;51.508;18.118;2023-04-28T11:04:05;35.90;14.60
23311;DHT22;11828;51.508;18.118;2023-04-28T11:06:37;36.10;14.80
23311;DHT22;11828;51.508;18.118;2023-04-28T11:17:01;36.50;14.90
23311;DHT22;11828;51.508;18.118;2023-04-28T11:19:40;36.90;14.80
23311;DHT22;11828;51.508;18.118;2023-04-28T11:22:20;37.30;14.70
23311;DHT22;11828;51.508;18.118;2023-04-28T11:24:55;37.80;14.60
23311;DHT22;11828;51.508;18.118;2023-04-28T11:27:26;37.60;14.50
23311;DHT22;11828;51.508;18.118;2023-04-28T11:29:58;37.30;14.30
23311;DHT22;11828;51.508;18.118;2023-04-28T11:32:26;36.90;14.50
23311;DHT22;11828;51.508;18.118;2023-04-28T11:34:53;36.20;14.50
23311;DHT22;11828;51.508;18.118;2023-04-28T11:37:19;35.80;14.90
23311;DHT22;11828;51.508;18.118;2023-04-28T11:39:46;35.70;15.10
23311;DHT22;11828;51.508;18.118;2023-04-28T11:42:12;35.50;15.10
23311;DHT22;11828;51.508;18.118;2023-04-28T11:44:38;35.30;15.10
23311;DHT22;11828;51.508;18.118;2023-04-28T11:47:06;35.30;15.20
23311;DHT22;11828;51.508;18.118;2023-04-28T11:49:42;35.40;15.30
23311;DHT22;11828;51.508;18.118;2023-04-28T11:52:09;35.10;15.30
23311;DHT22;11828;51.508;18.118;2023-04-28T11:54:36;35.30;15.40
23311;DHT22;11828;51.508;18.118;2023-04-28T11:57:03;35.80;15.30
23311;DHT22;11828;51.508;18.118;2023-04-28T11:59:34;36.60;15.20
23311;DHT22;11828;51.508;18.118;2023-04-28T12:02:02;37.40;14.80
23311;DHT22;11828;51.508;18.118;2023-04-28T12:04:42;37.90;14.60
23311;DHT22;11828;51.508;18.118;2023-04-28T12:07:13;37.90;14.30
23311;DHT22;11828;51.508;18.118;2023-04-28T12:09:47;37.50;14.30
23311;DHT22;11828;51.508;18.118;2023-04-28T12:12:26;37.00;14.30
23311;DHT22;11828;51.508;18.118;2023-04-28T12:14:55;36.60;14.50
23311;DHT22;11828;51.508;18.118;2023-04-28T12:19:51;36.60;15.00
23311;DHT22;11828;51.508;18.118;2023-04-28T12:22:19;36.90;15.10
23311;DHT22;11828;51.508;18.118;2023-04-28T12:24:45;37.20;15.10
23311;DHT22;11828;51.508;18.118;2023-04-28T12:27:16;37.30;14.90
23311;DHT22;11828;51.508;18.118;2023-04-28T12:29:44;38.00;14.90
23311;DHT22;11828;51.508;18.118;2023-04-28T12:32:11;38.30;14.40
23311;DHT22;11828;51.508;18.118;2023-04-28T12:34:39;38.60;14.40
23311;DHT22;11828;51.508;18.118;2023-04-28T12:37:06;38.60;14.60
23311;DHT22;11828;51.508;18.118;2023-04-28T12:39:34;38.40;14.10
23311;DHT22;11828;51.508;18.118;2023-04-28T12:42:02;38.10;14.10
23311;DHT22;11828;51.508;18.118;2023-04-28T12:44:32;37.70;14.20
23311;DHT22;11828;51.508;18.118;2023-04-28T12:47:03;37.50;14.60
23311;DHT22;11828;51.508;18.118;2023-04-28T12:49:34;37.20;14.60
23311;DHT22;11828;51.508;18.118;2023-04-28T12:52:01;36.60;14.70
23311;DHT22;11828;51.508;18.118;2023-04-28T12:54:27;36.10;15.10
23311;DHT22;11828;51.508;18.118;2023-04-28T12:56:54;36.00;15.30
23311;DHT22;11828;51.508;18.118;2023-04-28T12:59:21;36.30;15.50
23311;DHT22;11828;51.508;18.118;2023-04-28T13:01:48;36.40;14.70
23311;DHT22;11828;51.508;18.118;2023-04-28T13:04:16;36.60;14.90
23311;DHT22;11828;51.508;18.118;2023-04-28T13:06:43;36.40;14.90
23311;DHT22;11828;51.508;18.118;2023-04-28T13:09:15;36.20;15.10
23311;DHT22;11828;51.508;18.118;2023-04-28T13:11:42;35.80;15.10
23311;DHT22;11828;51.508;18.118;2023-04-28T13:14:08;35.20;15.30
23311;DHT22;11828;51.508;18.118;2023-04-28T13:16:34;34.80;15.70
23311;DHT22;11828;51.508;18.118;2023-04-28T13:19:02;34.90;15.90
23311;DHT22;11828;51.508;18.118;2023-04-28T13:21:28;35.40;15.70
23311;DHT22;11828;51.508;18.118;2023-04-28T13:23:55;35.70;15.30
23311;DHT22;11828;51.508;18.118;2023-04-28T13:26:22;35.50;15.40
23311;DHT22;11828;51.508;18.118;2023-04-28T13:28:50;35.20;15.30
23311;DHT22;11828;51.508;18.118;2023-04-28T13:31:17;35.50;15.60
23311;DHT22;11828;51.508;18.118;2023-04-28T13:33:44;36.00;15.60
23311;DHT22;11828;51.508;18.118;2023-04-28T13:36:10;36.40;15.60
23311;DHT22;11828;51.508;18.118;2023-04-28T13:38:37;37.10;15.30
23311;DHT22;11828;51.508;18.118;2023-04-28T13:41:04;37.90;15.10
23311;DHT22;11828;51.508;18.118;2023-04-28T13:43:30;38.40;14.60
23311;DHT22;11828;51.508;18.118;2023-04-28T13:45:56;38.30;14.40
23311;DHT22;11828;51.508;18.118;2023-04-28T13:48:23;38.60;14.40
23311;DHT22;11828;51.508;18.118;2023-04-28T13:50:50;38.80;14.20
23311;DHT22;11828;51.508;18.118;2023-04-28T13:53:16;38.90;14.30
23311;DHT22;11828;51.508;18.118;2023-04-28T13:55:42;39.20;14.20
23311;DHT22;11828;51.508;18.118;2023-04-28T13:58:08;39.10;13.80
23311;DHT22;11828;51.508;18.118;2023-04-28T14:00:35;38.90;13.80
23311;DHT22;11828;51.508;18.118;2023-04-28T14:03:02;38.50;13.80
23311;DHT22;11828;51.508;18.118;2023-04-28T14:05:28;37.90;14.10
23311;DHT22;11828;51.508;18.118;2023-04-28T14:07:55;37.70;14.40
23311;DHT22;11828;51.508;18.118;2023-04-28T14:10:22;37.80;14.30
23311;DHT22;11828;51.508;18.118;2023-04-28T14:12:48;38.00;13.90
23311;DHT22;11828;51.508;18.118;2023-04-28T14:15:14;37.80;13.90
23311;DHT22;11828;51.508;18.118;2023-04-28T14:17:42;37.40;14.30
23311;DHT22;11828;51.508;18.118;2023-04-28T14:20:08;37.00;14.60
23311;DHT22;11828;51.508;18.118;2023-04-28T14:22:37;36.60;14.80
23311;DHT22;11828;51.508;18.118;2023-04-28T14:25:04;36.20;15.00
23311;DHT22;11828;51.508;18.118;2023-04-28T14:27:30;35.80;15.30
23311;DHT22;11828;51.508;18.118;2023-04-28T14:29:58;35.90;15.70
23311;DHT22;11828;51.508;18.118;2023-04-28T14:32:25;36.50;15.40
23311;DHT22;11828;51.508;18.118;2023-04-28T14:34:51;37.10;15.20
23311;DHT22;11828;51.508;18.118;2023-04-28T14:37:18;37.70;14.50
23311;DHT22;11828;51.508;18.118;2023-04-28T14:39:44;38.30;14.40
23311;DHT22;11828;51.508;18.118;2023-04-28T14:42:10;38.70;14.10
23311;DHT22;11828;51.508;18.118;2023-04-28T14:44:37;38.80;14.00
23311;DHT22;11828;51.508;18.118;2023-04-28T14:47:03;38.70;13.80
23311;DHT22;11828;51.508;18.118;2023-04-28T14:49:30;38.50;14.00
23311;DHT22;11828;51.508;18.118;2023-04-28T14:51:56;38.00;14.10
23311;DHT22;11828;51.508;18.118;2023-04-28T14:54:22;37.60;14.40
23311;DHT22;11828;51.508;18.118;2023-04-28T14:56:49;37.10;14.50
23311;DHT22;11828;51.508;18.118;2023-04-28T14:59:15;36.60;14.60
23311;DHT22;11828;51.508;18.118;2023-04-28T15:01:41;36.30;14.80
23311;DHT22;11828;51.508;18.118;2023-04-28T15:04:08;36.00;14.90
23311;DHT22;11828;51.508;18.118;2023-04-28T15:06:35;35.80;14.90
23311;DHT22;11828;51.508;18.118;2023-04-28T15:09:01;35.60;15.00
23311;DHT22;11828;51.508;18.118;2023-04-28T15:11:27;35.30;15.10
23311;DHT22;11828;51.508;18.118;2023-04-28T15:13:54;35.20;15.20
23311;DHT22;11828;51.508;18.118;2023-04-28T15:16:20;35.00;15.60
23311;DHT22;11828;51.508;18.118;2023-04-28T15:18:46;34.70;15.50
23311;DHT22;11828;51.508;18.118;2023-04-28T15:21:13;34.50;15.90
23311;DHT22;11828;51.508;18.118;2023-04-28T15:23:39;34.50;16.00
23311;DHT22;11828;51.508;18.118;2023-04-28T15:26:05;34.30;16.10
23311;DHT22;11828;51.508;18.118;2023-04-28T15:28:32;34.40;16.30
23311;DHT22;11828;51.508;18.118;2023-04-28T15:30:59;34.60;16.10
23311;DHT22;11828;51.508;18.118;2023-04-28T15:33:27;35.20;16.00
23311;DHT22;11828;51.508;18.118;2023-04-28T15:35:53;35.60;15.70
23311;DHT22;11828;51.508;18.118;2023-04-28T15:38:19;36.10;15.50
23311;DHT22;11828;51.508;18.118;2023-04-28T15:40:46;36.60;15.40
23311;DHT22;11828;51.508;18.118;2023-04-28T15:43:14;37.10;14.90
23311;DHT22;11828;51.508;18.118;2023-04-28T15:45:40;37.30;14.70
23311;DHT22;11828;51.508;18.118;2023-04-28T15:48:06;37.40;14.60